Terminal Aerodrome Forecast
Issued by NWS

Current Version | Previous Version | Text Only | Print | Product List | Glossary On
Versions: 1 2 3 4 5 6 7 8 9 10 11 12 13 14 15 16 17 18 19
074
FTUS41 KPBZ 251725
TAFFKL
TAF
KFKL 251725Z 2518/2618 25013G24KT P6SM SCT025 BKN035
     FM252200 26014G25KT P6SM VCSH BKN025
     FM260900 27009G15KT P6SM BKN025
     FM261500 27009G20KT P6SM BKN035
      AMD LTD TO CLD VIS AND WIND=

USA.gov is the U.S. government's official web portal to all federal, state and local government web resources and services.